Notice: Undefined index: station in /home3/dimtiris/public_html/webApp/metar/index.php on line 4

Metar

Weather conditions for all airports of the world. Just type the ICAO code of an airport.

LGAV 031820Z 27003KT 9999 FEW025 13/07 Q1021 NOSIG

STATION LGAV
OBSERVED Tue Mar 3, 11:20 MST
NOW Tue Mar 3, 11:43 MST
AGE 23 min ago
WIND W at 3 mph
VISIBILITY 16 miles
CONDITIONS
CLOUDS partly cloudy
TEMP 55°F (13°C)
DEWPT 45°F (7°C)
HUMIDITY 67%
BAROMETER 1021 hPa (30.15 in Hg)

Get weather info from other station:

Some ICAO codes to try: